sensor_id;sensor_type;location;lat;lon;timestamp;P1;durP1;ratioP1;P2;durP2;ratioP2
17915;SDS011;9083;49.156;8.982;2023-05-07T00:01:10;2.60;;;2.40;;
17915;SDS011;9083;49.156;8.982;2023-05-07T00:03:37;2.97;;;2.57;;
17915;SDS011;9083;49.156;8.982;2023-05-07T00:06:04;3.97;;;2.60;;
17915;SDS011;9083;49.156;8.982;2023-05-07T00:08:30;5.30;;;2.30;;
17915;SDS011;9083;49.156;8.982;2023-05-07T00:10:58;3.07;;;2.33;;
17915;SDS011;9083;49.156;8.982;2023-05-07T00:13:24;6.23;;;2.30;;
17915;SDS011;9083;49.156;8.982;2023-05-07T00:15:51;2.60;;;2.50;;
17915;SDS011;9083;49.156;8.982;2023-05-07T00:18:17;3.07;;;2.60;;
17915;SDS011;9083;49.156;8.982;2023-05-07T00:20:46;3.33;;;2.40;;
17915;SDS011;9083;49.156;8.982;2023-05-07T00:23:12;2.70;;;2.50;;
17915;SDS011;9083;49.156;8.982;2023-05-07T00:25:38;5.20;;;2.33;;
17915;SDS011;9083;49.156;8.982;2023-05-07T00:28:06;2.37;;;2.27;;
17915;SDS011;9083;49.156;8.982;2023-05-07T00:30:33;2.60;;;2.40;;
17915;SDS011;9083;49.156;8.982;2023-05-07T00:32:59;3.83;;;3.03;;
17915;SDS011;9083;49.156;8.982;2023-05-07T00:35:25;2.73;;;2.57;;
17915;SDS011;9083;49.156;8.982;2023-05-07T00:37:55;3.27;;;2.53;;
17915;SDS011;9083;49.156;8.982;2023-05-07T00:40:21;2.90;;;2.67;;
17915;SDS011;9083;49.156;8.982;2023-05-07T00:42:48;4.07;;;2.73;;
17915;SDS011;9083;49.156;8.982;2023-05-07T00:45:16;2.60;;;2.40;;
17915;SDS011;9083;49.156;8.982;2023-05-07T00:47:43;2.53;;;2.33;;
17915;SDS011;9083;49.156;8.982;2023-05-07T00:50:09;5.67;;;2.20;;
17915;SDS011;9083;49.156;8.982;2023-05-07T00:52:37;2.43;;;2.23;;
17915;SDS011;9083;49.156;8.982;2023-05-07T00:55:05;2.27;;;2.17;;
17915;SDS011;9083;49.156;8.982;2023-05-07T00:57:32;2.90;;;2.70;;
17915;SDS011;9083;49.156;8.982;2023-05-07T00:59:59;2.30;;;2.20;;
17915;SDS011;9083;49.156;8.982;2023-05-07T01:02:27;2.67;;;2.47;;
17915;SDS011;9083;49.156;8.982;2023-05-07T01:04:53;2.70;;;2.50;;
17915;SDS011;9083;49.156;8.982;2023-05-07T01:07:21;3.00;;;2.80;;
17915;SDS011;9083;49.156;8.982;2023-05-07T01:09:47;4.63;;;2.40;;
17915;SDS011;9083;49.156;8.982;2023-05-07T01:12:14;2.23;;;2.10;;
17915;SDS011;9083;49.156;8.982;2023-05-07T01:14:40;4.17;;;2.40;;
17915;SDS011;9083;49.156;8.982;2023-05-07T01:17:07;2.17;;;2.07;;
17915;SDS011;9083;49.156;8.982;2023-05-07T01:19:35;3.03;;;2.37;;
17915;SDS011;9083;49.156;8.982;2023-05-07T01:22:02;2.47;;;2.07;;
17915;SDS011;9083;49.156;8.982;2023-05-07T01:24:31;3.03;;;2.30;;
17915;SDS011;9083;49.156;8.982;2023-05-07T01:26:57;2.63;;;2.43;;
17915;SDS011;9083;49.156;8.982;2023-05-07T01:29:24;2.30;;;2.20;;
17915;SDS011;9083;49.156;8.982;2023-05-07T01:31:50;2.60;;;2.40;;
17915;SDS011;9083;49.156;8.982;2023-05-07T01:34:17;2.53;;;2.33;;
17915;SDS011;9083;49.156;8.982;2023-05-07T01:36:44;2.87;;;2.63;;
17915;SDS011;9083;49.156;8.982;2023-05-07T01:39:11;2.87;;;2.10;;
17915;SDS011;9083;49.156;8.982;2023-05-07T01:41:39;4.17;;;2.57;;
17915;SDS011;9083;49.156;8.982;2023-05-07T01:44:06;8.17;;;2.60;;
17915;SDS011;9083;49.156;8.982;2023-05-07T01:46:33;2.67;;;2.57;;
17915;SDS011;9083;49.156;8.982;2023-05-07T01:49:00;5.57;;;2.90;;
17915;SDS011;9083;49.156;8.982;2023-05-07T01:51:26;2.37;;;2.23;;
17915;SDS011;9083;49.156;8.982;2023-05-07T01:53:53;2.97;;;2.77;;
17915;SDS011;9083;49.156;8.982;2023-05-07T01:56:19;2.80;;;2.53;;
17915;SDS011;9083;49.156;8.982;2023-05-07T01:58:47;3.10;;;2.70;;
17915;SDS011;9083;49.156;8.982;2023-05-07T02:01:17;2.73;;;2.50;;
17915;SDS011;9083;49.156;8.982;2023-05-07T02:03:44;3.80;;;2.50;;
17915;SDS011;9083;49.156;8.982;2023-05-07T02:06:10;2.63;;;2.43;;
17915;SDS011;9083;49.156;8.982;2023-05-07T02:08:36;4.03;;;2.53;;
17915;SDS011;9083;49.156;8.982;2023-05-07T02:11:03;3.37;;;2.67;;
17915;SDS011;9083;49.156;8.982;2023-05-07T02:13:32;2.80;;;2.37;;
17915;SDS011;9083;49.156;8.982;2023-05-07T02:16:01;6.83;;;2.70;;
17915;SDS011;9083;49.156;8.982;2023-05-07T02:18:27;2.50;;;2.40;;
17915;SDS011;9083;49.156;8.982;2023-05-07T02:20:54;2.50;;;2.30;;
17915;SDS011;9083;49.156;8.982;2023-05-07T02:23:20;2.67;;;2.23;;
17915;SDS011;9083;49.156;8.982;2023-05-07T02:25:47;2.50;;;2.30;;
17915;SDS011;9083;49.156;8.982;2023-05-07T02:28:13;2.73;;;2.37;;
17915;SDS011;9083;49.156;8.982;2023-05-07T02:30:40;2.63;;;2.43;;
17915;SDS011;9083;49.156;8.982;2023-05-07T02:33:08;3.93;;;2.30;;
17915;SDS011;9083;49.156;8.982;2023-05-07T02:35:34;2.83;;;2.53;;
17915;SDS011;9083;49.156;8.982;2023-05-07T02:38:01;3.60;;;2.23;;
17915;SDS011;9083;49.156;8.982;2023-05-07T02:40:27;4.63;;;2.83;;
17915;SDS011;9083;49.156;8.982;2023-05-07T02:42:55;2.90;;;2.70;;
17915;SDS011;9083;49.156;8.982;2023-05-07T02:45:21;2.80;;;2.53;;
17915;SDS011;9083;49.156;8.982;2023-05-07T02:47:47;3.83;;;2.67;;
17915;SDS011;9083;49.156;8.982;2023-05-07T02:50:15;4.00;;;2.27;;
17915;SDS011;9083;49.156;8.982;2023-05-07T02:52:42;2.53;;;2.37;;
17915;SDS011;9083;49.156;8.982;2023-05-07T02:55:08;7.23;;;2.93;;
17915;SDS011;9083;49.156;8.982;2023-05-07T02:57:35;3.43;;;2.40;;
17915;SDS011;9083;49.156;8.982;2023-05-07T03:00:09;3.20;;;3.00;;
17915;SDS011;9083;49.156;8.982;2023-05-07T03:02:36;3.30;;;3.00;;
17915;SDS011;9083;49.156;8.982;2023-05-07T03:05:02;3.77;;;2.57;;
17915;SDS011;9083;49.156;8.982;2023-05-07T03:07:30;4.37;;;2.80;;
17915;SDS011;9083;49.156;8.982;2023-05-07T03:09:57;5.73;;;2.70;;
17915;SDS011;9083;49.156;8.982;2023-05-07T03:12:23;3.40;;;2.27;;
17915;SDS011;9083;49.156;8.982;2023-05-07T03:14:50;3.00;;;2.80;;
17915;SDS011;9083;49.156;8.982;2023-05-07T03:17:16;2.57;;;2.33;;
17915;SDS011;9083;49.156;8.982;2023-05-07T03:19:42;3.53;;;2.47;;
17915;SDS011;9083;49.156;8.982;2023-05-07T03:22:09;3.83;;;2.77;;
17915;SDS011;9083;49.156;8.982;2023-05-07T03:24:37;2.97;;;2.77;;
17915;SDS011;9083;49.156;8.982;2023-05-07T03:27:03;2.83;;;2.63;;
17915;SDS011;9083;49.156;8.982;2023-05-07T03:29:29;5.23;;;2.63;;
17915;SDS011;9083;49.156;8.982;2023-05-07T03:31:56;3.00;;;2.70;;
17915;SDS011;9083;49.156;8.982;2023-05-07T03:34:25;4.83;;;2.33;;
17915;SDS011;9083;49.156;8.982;2023-05-07T03:36:52;4.10;;;2.80;;
17915;SDS011;9083;49.156;8.982;2023-05-07T03:39:18;2.70;;;2.50;;
17915;SDS011;9083;49.156;8.982;2023-05-07T03:41:46;3.13;;;2.47;;
17915;SDS011;9083;49.156;8.982;2023-05-07T03:44:12;5.33;;;2.90;;
17915;SDS011;9083;49.156;8.982;2023-05-07T03:46:38;3.47;;;2.10;;
17915;SDS011;9083;49.156;8.982;2023-05-07T03:49:05;3.07;;;2.80;;
17915;SDS011;9083;49.156;8.982;2023-05-07T03:51:31;2.70;;;2.30;;
17915;SDS011;9083;49.156;8.982;2023-05-07T03:53:58;3.20;;;2.40;;
17915;SDS011;9083;49.156;8.982;2023-05-07T03:56:25;2.47;;;2.20;;
17915;SDS011;9083;49.156;8.982;2023-05-07T03:58:54;3.83;;;3.00;;
17915;SDS011;9083;49.156;8.982;2023-05-07T04:01:20;2.87;;;2.07;;
17915;SDS011;9083;49.156;8.982;2023-05-07T04:03:46;4.17;;;2.30;;
17915;SDS011;9083;49.156;8.982;2023-05-07T04:06:13;2.73;;;2.50;;
17915;SDS011;9083;49.156;8.982;2023-05-07T04:08:39;3.00;;;2.37;;
17915;SDS011;9083;49.156;8.982;2023-05-07T04:11:06;2.63;;;2.37;;
17915;SDS011;9083;49.156;8.982;2023-05-07T04:13:32;2.53;;;2.33;;
17915;SDS011;9083;49.156;8.982;2023-05-07T04:16:00;2.70;;;2.60;;
17915;SDS011;9083;49.156;8.982;2023-05-07T04:18:27;2.87;;;2.60;;
17915;SDS011;9083;49.156;8.982;2023-05-07T04:20:59;3.43;;;2.57;;
17915;SDS011;9083;49.156;8.982;2023-05-07T04:23:25;3.20;;;2.60;;
17915;SDS011;9083;49.156;8.982;2023-05-07T04:25:52;3.63;;;2.20;;
17915;SDS011;9083;49.156;8.982;2023-05-07T04:28:19;2.90;;;2.70;;
17915;SDS011;9083;49.156;8.982;2023-05-07T04:30:45;2.47;;;2.37;;
17915;SDS011;9083;49.156;8.982;2023-05-07T04:33:14;6.37;;;2.43;;
17915;SDS011;9083;49.156;8.982;2023-05-07T04:35:42;2.60;;;2.40;;
17915;SDS011;9083;49.156;8.982;2023-05-07T04:38:08;2.60;;;2.40;;
17915;SDS011;9083;49.156;8.982;2023-05-07T04:40:35;3.33;;;2.83;;
17915;SDS011;9083;49.156;8.982;2023-05-07T04:43:01;3.40;;;2.30;;
17915;SDS011;9083;49.156;8.982;2023-05-07T04:45:28;4.37;;;2.30;;
17915;SDS011;9083;49.156;8.982;2023-05-07T04:47:54;2.20;;;2.00;;
17915;SDS011;9083;49.156;8.982;2023-05-07T04:50:22;4.20;;;2.57;;
17915;SDS011;9083;49.156;8.982;2023-05-07T04:52:49;3.73;;;2.20;;
17915;SDS011;9083;49.156;8.982;2023-05-07T04:55:16;2.37;;;2.23;;
17915;SDS011;9083;49.156;8.982;2023-05-07T04:57:42;2.37;;;2.27;;
17915;SDS011;9083;49.156;8.982;2023-05-07T05:00:09;2.60;;;2.40;;
17915;SDS011;9083;49.156;8.982;2023-05-07T05:02:35;2.40;;;2.20;;
17915;SDS011;9083;49.156;8.982;2023-05-07T05:05:02;2.20;;;2.10;;
17915;SDS011;9083;49.156;8.982;2023-05-07T05:07:30;3.27;;;2.90;;
17915;SDS011;9083;49.156;8.982;2023-05-07T05:09:56;2.30;;;2.20;;
17915;SDS011;9083;49.156;8.982;2023-05-07T05:12:23;2.03;;;1.93;;
17915;SDS011;9083;49.156;8.982;2023-05-07T05:14:49;2.33;;;2.10;;
17915;SDS011;9083;49.156;8.982;2023-05-07T05:17:15;2.40;;;2.00;;
17915;SDS011;9083;49.156;8.982;2023-05-07T05:19:42;4.50;;;2.30;;
17915;SDS011;9083;49.156;8.982;2023-05-07T05:22:08;2.70;;;2.27;;
17915;SDS011;9083;49.156;8.982;2023-05-07T05:24:36;2.27;;;2.03;;
17915;SDS011;9083;49.156;8.982;2023-05-07T05:27:02;3.83;;;2.27;;
17915;SDS011;9083;49.156;8.982;2023-05-07T05:29:29;2.33;;;2.23;;
17915;SDS011;9083;49.156;8.982;2023-05-07T05:31:56;3.53;;;2.30;;
17915;SDS011;9083;49.156;8.982;2023-05-07T05:34:22;1.93;;;1.83;;
17915;SDS011;9083;49.156;8.982;2023-05-07T05:36:49;3.13;;;1.77;;
17915;SDS011;9083;49.156;8.982;2023-05-07T05:39:15;2.40;;;2.20;;
17915;SDS011;9083;49.156;8.982;2023-05-07T05:41:43;2.30;;;2.20;;
17915;SDS011;9083;49.156;8.982;2023-05-07T05:44:09;2.83;;;2.50;;
17915;SDS011;9083;49.156;8.982;2023-05-07T05:46:36;2.47;;;2.37;;
17915;SDS011;9083;49.156;8.982;2023-05-07T05:49:02;2.50;;;2.30;;
17915;SDS011;9083;49.156;8.982;2023-05-07T05:51:29;2.60;;;2.40;;
17915;SDS011;9083;49.156;8.982;2023-05-07T05:53:55;2.33;;;2.13;;
17915;SDS011;9083;49.156;8.982;2023-05-07T05:56:22;2.60;;;2.40;;
17915;SDS011;9083;49.156;8.982;2023-05-07T05:58:49;2.23;;;2.13;;
17915;SDS011;9083;49.156;8.982;2023-05-07T06:01:16;3.53;;;2.23;;
17915;SDS011;9083;49.156;8.982;2023-05-07T06:03:43;3.13;;;2.90;;
17915;SDS011;9083;49.156;8.982;2023-05-07T06:06:09;3.97;;;2.37;;
17915;SDS011;9083;49.156;8.982;2023-05-07T06:08:35;3.20;;;2.80;;
17915;SDS011;9083;49.156;8.982;2023-05-07T06:11:02;2.67;;;2.47;;
17915;SDS011;9083;49.156;8.982;2023-05-07T06:13:28;2.80;;;2.60;;
17915;SDS011;9083;49.156;8.982;2023-05-07T06:15:56;2.70;;;2.47;;
17915;SDS011;9083;49.156;8.982;2023-05-07T06:18:22;4.23;;;2.40;;
17915;SDS011;9083;49.156;8.982;2023-05-07T06:20:49;5.63;;;3.30;;
17915;SDS011;9083;49.156;8.982;2023-05-07T06:23:15;3.70;;;2.70;;
17915;SDS011;9083;49.156;8.982;2023-05-07T06:25:42;4.77;;;2.73;;
17915;SDS011;9083;49.156;8.982;2023-05-07T06:28:08;3.23;;;2.70;;
17915;SDS011;9083;49.156;8.982;2023-05-07T06:30:36;2.80;;;2.60;;
17915;SDS011;9083;49.156;8.982;2023-05-07T06:33:04;2.57;;;2.37;;
17915;SDS011;9083;49.156;8.982;2023-05-07T06:35:30;2.97;;;2.67;;
17915;SDS011;9083;49.156;8.982;2023-05-07T06:37:56;2.90;;;2.43;;
17915;SDS011;9083;49.156;8.982;2023-05-07T06:40:23;4.47;;;2.70;;
17915;SDS011;9083;49.156;8.982;2023-05-07T06:42:49;3.37;;;2.67;;
17915;SDS011;9083;49.156;8.982;2023-05-07T06:45:15;4.87;;;2.57;;
17915;SDS011;9083;49.156;8.982;2023-05-07T06:47:42;7.80;;;2.83;;
17915;SDS011;9083;49.156;8.982;2023-05-07T06:50:10;2.70;;;2.50;;
17915;SDS011;9083;49.156;8.982;2023-05-07T06:52:36;3.10;;;2.80;;
17915;SDS011;9083;49.156;8.982;2023-05-07T06:55:03;2.80;;;2.60;;
17915;SDS011;9083;49.156;8.982;2023-05-07T06:57:30;5.03;;;2.70;;
17915;SDS011;9083;49.156;8.982;2023-05-07T06:59:56;4.47;;;2.53;;
17915;SDS011;9083;49.156;8.982;2023-05-07T07:02:22;2.77;;;2.57;;
17915;SDS011;9083;49.156;8.982;2023-05-07T07:04:49;3.27;;;2.53;;
17915;SDS011;9083;49.156;8.982;2023-05-07T07:07:17;2.40;;;2.30;;
17915;SDS011;9083;49.156;8.982;2023-05-07T07:09:43;2.87;;;2.33;;
17915;SDS011;9083;49.156;8.982;2023-05-07T07:12:09;5.07;;;2.90;;
17915;SDS011;9083;49.156;8.982;2023-05-07T07:14:36;2.50;;;2.40;;
17915;SDS011;9083;49.156;8.982;2023-05-07T07:17:02;2.50;;;2.33;;
17915;SDS011;9083;49.156;8.982;2023-05-07T07:19:30;3.80;;;2.90;;
17915;SDS011;9083;49.156;8.982;2023-05-07T07:21:56;2.40;;;2.07;;
17915;SDS011;9083;49.156;8.982;2023-05-07T07:24:24;3.23;;;2.20;;
17915;SDS011;9083;49.156;8.982;2023-05-07T07:26:50;3.40;;;2.10;;
17915;SDS011;9083;49.156;8.982;2023-05-07T07:29:17;3.33;;;2.57;;
17915;SDS011;9083;49.156;8.982;2023-05-07T07:31:43;5.80;;;2.47;;
17915;SDS011;9083;49.156;8.982;2023-05-07T07:34:10;2.57;;;2.37;;
17915;SDS011;9083;49.156;8.982;2023-05-07T07:36:36;2.67;;;2.33;;
17915;SDS011;9083;49.156;8.982;2023-05-07T07:39:03;2.63;;;2.43;;
17915;SDS011;9083;49.156;8.982;2023-05-07T07:41:31;4.13;;;2.97;;
17915;SDS011;9083;49.156;8.982;2023-05-07T07:43:57;2.67;;;2.47;;
17915;SDS011;9083;49.156;8.982;2023-05-07T07:46:24;3.07;;;2.57;;
17915;SDS011;9083;49.156;8.982;2023-05-07T07:48:51;3.17;;;2.43;;
17915;SDS011;9083;49.156;8.982;2023-05-07T07:51:18;2.13;;;2.00;;
17915;SDS011;9083;49.156;8.982;2023-05-07T07:53:45;2.77;;;2.37;;
17915;SDS011;9083;49.156;8.982;2023-05-07T07:56:12;2.83;;;2.43;;
17915;SDS011;9083;49.156;8.982;2023-05-07T07:58:39;5.43;;;2.80;;
17915;SDS011;9083;49.156;8.982;2023-05-07T08:01:06;2.10;;;2.00;;
17915;SDS011;9083;49.156;8.982;2023-05-07T08:03:33;2.40;;;2.00;;
17915;SDS011;9083;49.156;8.982;2023-05-07T08:06:00;3.37;;;2.37;;
17915;SDS011;9083;49.156;8.982;2023-05-07T08:08:27;3.00;;;2.33;;
17915;SDS011;9083;49.156;8.982;2023-05-07T08:10:53;2.60;;;2.40;;
17915;SDS011;9083;49.156;8.982;2023-05-07T08:13:19;2.77;;;2.30;;
17915;SDS011;9083;49.156;8.982;2023-05-07T08:15:47;3.43;;;2.20;;
17915;SDS011;9083;49.156;8.982;2023-05-07T08:18:14;4.20;;;2.67;;
17915;SDS011;9083;49.156;8.982;2023-05-07T08:20:40;3.10;;;2.47;;
17915;SDS011;9083;49.156;8.982;2023-05-07T08:23:07;4.70;;;2.20;;
17915;SDS011;9083;49.156;8.982;2023-05-07T08:25:33;2.70;;;2.50;;
17915;SDS011;9083;49.156;8.982;2023-05-07T08:28:00;2.63;;;2.20;;
17915;SDS011;9083;49.156;8.982;2023-05-07T08:30:26;3.30;;;2.60;;
17915;SDS011;9083;49.156;8.982;2023-05-07T08:32:54;4.23;;;2.57;;
17915;SDS011;9083;49.156;8.982;2023-05-07T08:35:20;2.77;;;2.50;;
17915;SDS011;9083;49.156;8.982;2023-05-07T08:37:47;2.23;;;2.13;;
17915;SDS011;9083;49.156;8.982;2023-05-07T08:40:13;5.97;;;2.27;;
17915;SDS011;9083;49.156;8.982;2023-05-07T08:42:40;2.20;;;2.10;;
17915;SDS011;9083;49.156;8.982;2023-05-07T08:45:08;2.23;;;2.03;;
17915;SDS011;9083;49.156;8.982;2023-05-07T08:47:38;2.13;;;1.93;;
17915;SDS011;9083;49.156;8.982;2023-05-07T08:50:08;4.53;;;2.27;;
17915;SDS011;9083;49.156;8.982;2023-05-07T08:52:34;2.73;;;2.60;;
17915;SDS011;9083;49.156;8.982;2023-05-07T08:55:01;2.67;;;1.97;;
17915;SDS011;9083;49.156;8.982;2023-05-07T08:57:28;5.83;;;2.30;;
17915;SDS011;9083;49.156;8.982;2023-05-07T08:59:54;3.13;;;2.57;;
17915;SDS011;9083;49.156;8.982;2023-05-07T09:02:21;4.30;;;2.40;;
17915;SDS011;9083;49.156;8.982;2023-05-07T09:04:47;5.90;;;2.60;;
17915;SDS011;9083;49.156;8.982;2023-05-07T09:07:15;2.20;;;2.10;;
17915;SDS011;9083;49.156;8.982;2023-05-07T09:09:42;2.47;;;2.13;;
17915;SDS011;9083;49.156;8.982;2023-05-07T09:12:09;2.03;;;1.93;;
17915;SDS011;9083;49.156;8.982;2023-05-07T09:14:36;2.20;;;2.03;;
17915;SDS011;9083;49.156;8.982;2023-05-07T09:17:02;4.07;;;2.30;;
17915;SDS011;9083;49.156;8.982;2023-05-07T09:19:29;2.07;;;1.90;;
17915;SDS011;9083;49.156;8.982;2023-05-07T09:21:59;2.70;;;2.30;;
17915;SDS011;9083;49.156;8.982;2023-05-07T09:24:27;3.73;;;2.20;;
17915;SDS011;9083;49.156;8.982;2023-05-07T09:26:57;3.07;;;2.40;;
17915;SDS011;9083;49.156;8.982;2023-05-07T09:29:24;2.47;;;2.27;;
17915;SDS011;9083;49.156;8.982;2023-05-07T09:31:51;2.78;;;1.98;;
17915;SDS011;9083;49.156;8.982;2023-05-07T09:34:17;2.93;;;2.30;;
17915;SDS011;9083;49.156;8.982;2023-05-07T09:36:43;3.30;;;2.72;;
17915;SDS011;9083;49.156;8.982;2023-05-07T09:39:10;3.67;;;2.58;;
17915;SDS011;9083;49.156;8.982;2023-05-07T09:41:44;2.63;;;2.45;;
17915;SDS011;9083;49.156;8.982;2023-05-07T09:44:10;4.10;;;2.30;;
17915;SDS011;9083;49.156;8.982;2023-05-07T09:46:38;1.98;;;1.88;;
17915;SDS011;9083;49.156;8.982;2023-05-07T09:49:04;2.55;;;2.10;;
17915;SDS011;9083;49.156;8.982;2023-05-07T09:51:37;1.92;;;1.85;;
17915;SDS011;9083;49.156;8.982;2023-05-07T09:54:05;3.17;;;1.85;;
17915;SDS011;9083;49.156;8.982;2023-05-07T09:56:32;4.95;;;2.22;;
17915;SDS011;9083;49.156;8.982;2023-05-07T09:59:00;2.25;;;2.00;;
17915;SDS011;9083;49.156;8.982;2023-05-07T10:01:33;2.20;;;2.10;;
17915;SDS011;9083;49.156;8.982;2023-05-07T10:04:02;2.42;;;2.22;;
17915;SDS011;9083;49.156;8.982;2023-05-07T10:06:29;1.90;;;1.80;;
17915;SDS011;9083;49.156;8.982;2023-05-07T10:08:56;2.80;;;2.25;;
17915;SDS011;9083;49.156;8.982;2023-05-07T10:11:23;2.17;;;2.08;;
17915;SDS011;9083;49.156;8.982;2023-05-07T10:13:49;2.72;;;2.05;;
17915;SDS011;9083;49.156;8.982;2023-05-07T10:16:19;2.20;;;2.00;;
17915;SDS011;9083;49.156;8.982;2023-05-07T10:18:46;3.22;;;2.95;;
17915;SDS011;9083;49.156;8.982;2023-05-07T10:21:15;2.10;;;2.00;;
17915;SDS011;9083;49.156;8.982;2023-05-07T10:23:42;1.83;;;1.73;;
17915;SDS011;9083;49.156;8.982;2023-05-07T10:26:10;4.95;;;2.55;;
17915;SDS011;9083;49.156;8.982;2023-05-07T10:28:39;2.10;;;1.73;;
17915;SDS011;9083;49.156;8.982;2023-05-07T10:33:50;2.08;;;1.98;;
17915;SDS011;9083;49.156;8.982;2023-05-07T10:36:17;2.47;;;2.28;;
17915;SDS011;9083;49.156;8.982;2023-05-07T10:38:44;2.70;;;1.85;;
17915;SDS011;9083;49.156;8.982;2023-05-07T10:41:11;3.15;;;2.20;;
17915;SDS011;9083;49.156;8.982;2023-05-07T10:43:38;2.10;;;2.00;;
17915;SDS011;9083;49.156;8.982;2023-05-07T10:46:15;2.83;;;1.80;;
17915;SDS011;9083;49.156;8.982;2023-05-07T10:51:28;2.70;;;2.22;;
17915;SDS011;9083;49.156;8.982;2023-05-07T10:56:36;1.92;;;1.83;;
17915;SDS011;9083;49.156;8.982;2023-05-07T11:01:49;5.28;;;2.05;;
17915;SDS011;9083;49.156;8.982;2023-05-07T11:04:16;2.90;;;1.80;;
17915;SDS011;9083;49.156;8.982;2023-05-07T11:12:13;2.30;;;2.10;;
17915;SDS011;9083;49.156;8.982;2023-05-07T11:14:42;3.85;;;2.53;;
17915;SDS011;9083;49.156;8.982;2023-05-07T11:17:09;2.15;;;2.05;;
17915;SDS011;9083;49.156;8.982;2023-05-07T11:19:48;2.47;;;2.03;;
17915;SDS011;9083;49.156;8.982;2023-05-07T11:24:56;2.20;;;2.00;;
17915;SDS011;9083;49.156;8.982;2023-05-07T11:27:24;2.90;;;2.28;;
17915;SDS011;9083;49.156;8.982;2023-05-07T11:29:50;2.30;;;2.10;;
17915;SDS011;9083;49.156;8.982;2023-05-07T11:32:21;1.95;;;1.85;;
17915;SDS011;9083;49.156;8.982;2023-05-07T11:34:50;2.35;;;2.17;;
17915;SDS011;9083;49.156;8.982;2023-05-07T11:37:17;3.40;;;1.70;;
17915;SDS011;9083;49.156;8.982;2023-05-07T11:39:44;1.98;;;1.88;;
17915;SDS011;9083;49.156;8.982;2023-05-07T11:44:53;2.28;;;1.70;;
17915;SDS011;9083;49.156;8.982;2023-05-07T11:47:20;2.85;;;1.98;;
17915;SDS011;9083;49.156;8.982;2023-05-07T11:49:47;2.20;;;1.77;;
17915;SDS011;9083;49.156;8.982;2023-05-07T11:52:14;1.67;;;1.60;;
17915;SDS011;9083;49.156;8.982;2023-05-07T11:54:40;2.60;;;1.77;;
17915;SDS011;9083;49.156;8.982;2023-05-07T11:57:07;2.95;;;1.77;;
17915;SDS011;9083;49.156;8.982;2023-05-07T11:59:40;1.55;;;1.45;;
17915;SDS011;9083;49.156;8.982;2023-05-07T12:02:08;1.75;;;1.63;;
17915;SDS011;9083;49.156;8.982;2023-05-07T12:04:34;1.50;;;1.40;;
17915;SDS011;9083;49.156;8.982;2023-05-07T12:07:01;1.63;;;1.50;;
17915;SDS011;9083;49.156;8.982;2023-05-07T12:09:27;4.30;;;1.60;;
17915;SDS011;9083;49.156;8.982;2023-05-07T12:11:54;4.05;;;1.70;;
17915;SDS011;9083;49.156;8.982;2023-05-07T12:14:21;1.60;;;1.60;;
17915;SDS011;9083;49.156;8.982;2023-05-07T12:16:47;1.50;;;1.50;;
17915;SDS011;9083;49.156;8.982;2023-05-07T12:19:15;1.50;;;1.40;;
17915;SDS011;9083;49.156;8.982;2023-05-07T12:21:41;2.70;;;1.40;;
17915;SDS011;9083;49.156;8.982;2023-05-07T12:24:08;3.33;;;1.55;;
17915;SDS011;9083;49.156;8.982;2023-05-07T12:26:37;2.15;;;1.73;;
17915;SDS011;9083;49.156;8.982;2023-05-07T12:29:03;1.95;;;1.85;;
17915;SDS011;9083;49.156;8.982;2023-05-07T12:31:30;1.27;;;1.27;;
17915;SDS011;9083;49.156;8.982;2023-05-07T12:33:57;1.52;;;1.50;;
17915;SDS011;9083;49.156;8.982;2023-05-07T12:36:24;1.52;;;1.42;;
17915;SDS011;9083;49.156;8.982;2023-05-07T12:38:51;1.80;;;1.25;;
17915;SDS011;9083;49.156;8.982;2023-05-07T12:41:18;1.30;;;1.30;;
17915;SDS011;9083;49.156;8.982;2023-05-07T12:43:50;1.85;;;1.80;;
17915;SDS011;9083;49.156;8.982;2023-05-07T12:46:22;1.75;;;1.42;;
17915;SDS011;9083;49.156;8.982;2023-05-07T12:48:48;3.13;;;1.30;;
17915;SDS011;9083;49.156;8.982;2023-05-07T12:51:15;1.20;;;1.10;;
17915;SDS011;9083;49.156;8.982;2023-05-07T12:53:43;1.80;;;1.40;;
17915;SDS011;9083;49.156;8.982;2023-05-07T12:56:09;2.92;;;1.38;;
17915;SDS011;9083;49.156;8.982;2023-05-07T12:58:36;1.30;;;1.20;;
17915;SDS011;9083;49.156;8.982;2023-05-07T13:01:04;1.80;;;1.30;;
17915;SDS011;9083;49.156;8.982;2023-05-07T13:03:31;3.47;;;1.30;;
17915;SDS011;9083;49.156;8.982;2023-05-07T13:05:58;3.42;;;1.70;;
17915;SDS011;9083;49.156;8.982;2023-05-07T13:08:26;2.20;;;1.50;;
17915;SDS011;9083;49.156;8.982;2023-05-07T13:10:54;1.55;;;1.30;;
17915;SDS011;9083;49.156;8.982;2023-05-07T13:13:20;3.80;;;1.60;;
17915;SDS011;9083;49.156;8.982;2023-05-07T13:15:47;1.00;;;1.00;;
17915;SDS011;9083;49.156;8.982;2023-05-07T13:18:13;3.33;;;1.50;;
17915;SDS011;9083;49.156;8.982;2023-05-07T13:20:40;1.10;;;1.10;;
17915;SDS011;9083;49.156;8.982;2023-05-07T13:23:06;2.22;;;1.35;;
17915;SDS011;9083;49.156;8.982;2023-05-07T13:25:33;2.63;;;1.38;;
17915;SDS011;9083;49.156;8.982;2023-05-07T13:28:00;1.83;;;1.63;;
17915;SDS011;9083;49.156;8.982;2023-05-07T13:30:27;3.17;;;1.48;;
17915;SDS011;9083;49.156;8.982;2023-05-07T13:32:54;1.58;;;1.38;;
17915;SDS011;9083;49.156;8.982;2023-05-07T13:35:21;2.30;;;2.10;;
17915;SDS011;9083;49.156;8.982;2023-05-07T13:37:48;1.40;;;1.30;;
17915;SDS011;9083;49.156;8.982;2023-05-07T13:40:14;1.30;;;1.20;;
17915;SDS011;9083;49.156;8.982;2023-05-07T13:42:41;1.55;;;1.30;;
17915;SDS011;9083;49.156;8.982;2023-05-07T13:45:09;1.85;;;1.55;;
17915;SDS011;9083;49.156;8.982;2023-05-07T13:47:35;1.65;;;1.40;;
17915;SDS011;9083;49.156;8.982;2023-05-07T13:50:02;1.23;;;1.23;;
17915;SDS011;9083;49.156;8.982;2023-05-07T13:52:29;1.35;;;1.35;;
17915;SDS011;9083;49.156;8.982;2023-05-07T13:54:55;1.30;;;1.20;;
17915;SDS011;9083;49.156;8.982;2023-05-07T13:57:23;1.30;;;1.20;;
17915;SDS011;9083;49.156;8.982;2023-05-07T13:59:50;1.45;;;1.33;;
17915;SDS011;9083;49.156;8.982;2023-05-07T14:02:18;3.72;;;1.50;;
17915;SDS011;9083;49.156;8.982;2023-05-07T14:04:44;1.40;;;1.30;;
17915;SDS011;9083;49.156;8.982;2023-05-07T14:07:10;2.20;;;1.50;;
17915;SDS011;9083;49.156;8.982;2023-05-07T14:09:37;2.08;;;1.55;;
17915;SDS011;9083;49.156;8.982;2023-05-07T14:12:06;3.72;;;1.50;;
17915;SDS011;9083;49.156;8.982;2023-05-07T14:14:33;1.92;;;1.70;;
17915;SDS011;9083;49.156;8.982;2023-05-07T14:16:59;1.70;;;1.60;;
17915;SDS011;9083;49.156;8.982;2023-05-07T14:19:27;2.45;;;1.95;;
17915;SDS011;9083;49.156;8.982;2023-05-07T14:21:53;2.15;;;1.60;;
17915;SDS011;9083;49.156;8.982;2023-05-07T14:24:20;1.58;;;1.30;;
17915;SDS011;9083;49.156;8.982;2023-05-07T14:26:47;3.97;;;1.23;;
17915;SDS011;9083;49.156;8.982;2023-05-07T14:29:13;6.95;;;1.58;;
17915;SDS011;9083;49.156;8.982;2023-05-07T14:31:43;4.97;;;1.53;;
17915;SDS011;9083;49.156;8.982;2023-05-07T14:34:10;2.23;;;1.80;;
17915;SDS011;9083;49.156;8.982;2023-05-07T14:36:37;3.03;;;1.60;;
17915;SDS011;9083;49.156;8.982;2023-05-07T14:39:04;5.03;;;1.77;;
17915;SDS011;9083;49.156;8.982;2023-05-07T14:41:31;7.07;;;1.93;;
17915;SDS011;9083;49.156;8.982;2023-05-07T14:43:58;1.77;;;1.60;;
17915;SDS011;9083;49.156;8.982;2023-05-07T14:46:24;4.97;;;1.90;;
17915;SDS011;9083;49.156;8.982;2023-05-07T14:48:51;2.57;;;1.60;;
17915;SDS011;9083;49.156;8.982;2023-05-07T14:51:17;4.43;;;1.77;;
17915;SDS011;9083;49.156;8.982;2023-05-07T14:53:45;1.53;;;1.10;;
17915;SDS011;9083;49.156;8.982;2023-05-07T14:56:11;4.97;;;1.70;;
17915;SDS011;9083;49.156;8.982;2023-05-07T14:58:37;3.13;;;1.83;;
17915;SDS011;9083;49.156;8.982;2023-05-07T15:01:04;3.03;;;1.67;;
17915;SDS011;9083;49.156;8.982;2023-05-07T15:03:30;3.10;;;1.63;;
17915;SDS011;9083;49.156;8.982;2023-05-07T15:05:57;4.03;;;1.67;;
17915;SDS011;9083;49.156;8.982;2023-05-07T15:08:23;5.93;;;1.60;;
17915;SDS011;9083;49.156;8.982;2023-05-07T15:10:51;4.90;;;1.30;;
17915;SDS011;9083;49.156;8.982;2023-05-07T15:13:17;2.20;;;1.63;;
17915;SDS011;9083;49.156;8.982;2023-05-07T15:15:44;3.47;;;1.70;;
17915;SDS011;9083;49.156;8.982;2023-05-07T15:18:10;1.63;;;1.40;;
17915;SDS011;9083;49.156;8.982;2023-05-07T15:20:37;6.00;;;1.83;;